sensor_id;sensor_type;location;lat;lon;timestamp;P1;durP1;ratioP1;P2;durP2;ratioP2
37065;SDS011;22981;43.080;25.550;2023-03-23T00:00:18;15.23;;;13.03;;
37065;SDS011;22981;43.080;25.550;2023-03-23T00:02:46;14.75;;;12.65;;
37065;SDS011;22981;43.080;25.550;2023-03-23T00:05:14;14.33;;;12.82;;
37065;SDS011;22981;43.080;25.550;2023-03-23T00:07:41;14.07;;;12.65;;
37065;SDS011;22981;43.080;25.550;2023-03-23T00:10:10;13.95;;;12.43;;
37065;SDS011;22981;43.080;25.550;2023-03-23T00:12:38;15.20;;;11.68;;
37065;SDS011;22981;43.080;25.550;2023-03-23T00:15:08;15.00;;;13.50;;
37065;SDS011;22981;43.080;25.550;2023-03-23T00:17:37;16.07;;;13.08;;
37065;SDS011;22981;43.080;25.550;2023-03-23T00:20:09;13.38;;;11.97;;
37065;SDS011;22981;43.080;25.550;2023-03-23T00:22:38;15.43;;;12.82;;
37065;SDS011;22981;43.080;25.550;2023-03-23T00:25:06;15.88;;;14.20;;
37065;SDS011;22981;43.080;25.550;2023-03-23T00:27:34;16.25;;;14.53;;
37065;SDS011;22981;43.080;25.550;2023-03-23T00:30:02;17.52;;;14.85;;
37065;SDS011;22981;43.080;25.550;2023-03-23T00:32:29;15.90;;;14.25;;
37065;SDS011;22981;43.080;25.550;2023-03-23T00:34:57;15.72;;;14.07;;
37065;SDS011;22981;43.080;25.550;2023-03-23T00:37:25;16.87;;;15.13;;
37065;SDS011;22981;43.080;25.550;2023-03-23T00:39:53;17.30;;;15.30;;
37065;SDS011;22981;43.080;25.550;2023-03-23T00:42:22;18.57;;;16.60;;
37065;SDS011;22981;43.080;25.550;2023-03-23T00:44:50;23.98;;;16.60;;
37065;SDS011;22981;43.080;25.550;2023-03-23T00:47:19;17.55;;;15.65;;
37065;SDS011;22981;43.080;25.550;2023-03-23T00:49:48;20.00;;;17.57;;
37065;SDS011;22981;43.080;25.550;2023-03-23T00:52:17;20.25;;;18.07;;
37065;SDS011;22981;43.080;25.550;2023-03-23T00:54:44;22.95;;;19.17;;
37065;SDS011;22981;43.080;25.550;2023-03-23T00:57:12;21.97;;;18.45;;
37065;SDS011;22981;43.080;25.550;2023-03-23T00:59:40;22.37;;;19.10;;
37065;SDS011;22981;43.080;25.550;2023-03-23T01:02:07;22.98;;;19.95;;
37065;SDS011;22981;43.080;25.550;2023-03-23T01:04:38;24.85;;;21.20;;
37065;SDS011;22981;43.080;25.550;2023-03-23T01:07:08;23.22;;;20.05;;
37065;SDS011;22981;43.080;25.550;2023-03-23T01:09:38;26.17;;;20.25;;
37065;SDS011;22981;43.080;25.550;2023-03-23T01:12:06;24.55;;;20.60;;
37065;SDS011;22981;43.080;25.550;2023-03-23T01:14:33;25.88;;;21.65;;
37065;SDS011;22981;43.080;25.550;2023-03-23T01:17:01;26.05;;;22.27;;
37065;SDS011;22981;43.080;25.550;2023-03-23T01:19:28;28.35;;;22.52;;
37065;SDS011;22981;43.080;25.550;2023-03-23T01:21:56;29.98;;;24.15;;
37065;SDS011;22981;43.080;25.550;2023-03-23T01:24:23;28.17;;;23.55;;
37065;SDS011;22981;43.080;25.550;2023-03-23T01:26:51;31.82;;;24.72;;
37065;SDS011;22981;43.080;25.550;2023-03-23T01:29:18;30.97;;;24.77;;
37065;SDS011;22981;43.080;25.550;2023-03-23T01:31:46;31.02;;;25.35;;
37065;SDS011;22981;43.080;25.550;2023-03-23T01:34:14;35.98;;;26.57;;
37065;SDS011;22981;43.080;25.550;2023-03-23T01:36:41;37.60;;;26.80;;
37065;SDS011;22981;43.080;25.550;2023-03-23T01:39:09;38.95;;;27.58;;
37065;SDS011;22981;43.080;25.550;2023-03-23T01:41:36;35.03;;;26.85;;
37065;SDS011;22981;43.080;25.550;2023-03-23T01:46:48;36.73;;;27.22;;
37065;SDS011;22981;43.080;25.550;2023-03-23T01:49:18;35.98;;;26.00;;
37065;SDS011;22981;43.080;25.550;2023-03-23T01:51:49;38.70;;;26.17;;
37065;SDS011;22981;43.080;25.550;2023-03-23T01:54:21;38.17;;;26.15;;
37065;SDS011;22981;43.080;25.550;2023-03-23T01:56:52;34.80;;;24.80;;
37065;SDS011;22981;43.080;25.550;2023-03-23T01:59:36;39.08;;;25.65;;
37065;SDS011;22981;43.080;25.550;2023-03-23T02:02:04;37.60;;;25.37;;
37065;SDS011;22981;43.080;25.550;2023-03-23T02:04:31;34.43;;;25.08;;
37065;SDS011;22981;43.080;25.550;2023-03-23T02:07:01;38.08;;;25.52;;
37065;SDS011;22981;43.080;25.550;2023-03-23T02:09:29;37.48;;;26.50;;
37065;SDS011;22981;43.080;25.550;2023-03-23T02:11:57;35.23;;;25.45;;
37065;SDS011;22981;43.080;25.550;2023-03-23T02:14:24;41.18;;;27.73;;
37065;SDS011;22981;43.080;25.550;2023-03-23T02:17:00;34.05;;;24.50;;
37065;SDS011;22981;43.080;25.550;2023-03-23T02:30:54;30.97;;;22.80;;
37065;SDS011;22981;43.080;25.550;2023-03-23T02:33:38;30.17;;;22.75;;
37065;SDS011;22981;43.080;25.550;2023-03-23T02:41:33;30.40;;;21.90;;
37065;SDS011;22981;43.080;25.550;2023-03-23T02:44:02;30.40;;;22.20;;
37065;SDS011;22981;43.080;25.550;2023-03-23T02:46:31;34.92;;;23.92;;
37065;SDS011;22981;43.080;25.550;2023-03-23T02:49:01;37.95;;;25.65;;
37065;SDS011;22981;43.080;25.550;2023-03-23T02:51:31;38.67;;;26.02;;
37065;SDS011;22981;43.080;25.550;2023-03-23T02:54:01;26.65;;;19.50;;
37065;SDS011;22981;43.080;25.550;2023-03-23T02:56:31;22.15;;;17.67;;
37065;SDS011;22981;43.080;25.550;2023-03-23T02:59:01;19.35;;;16.62;;
37065;SDS011;22981;43.080;25.550;2023-03-23T03:04:03;18.85;;;15.78;;
37065;SDS011;22981;43.080;25.550;2023-03-23T03:06:51;18.60;;;15.38;;
37065;SDS011;22981;43.080;25.550;2023-03-23T03:09:34;19.37;;;14.43;;
37065;SDS011;22981;43.080;25.550;2023-03-23T03:12:26;17.37;;;14.95;;
37065;SDS011;22981;43.080;25.550;2023-03-23T03:15:06;18.02;;;13.72;;
37065;SDS011;22981;43.080;25.550;2023-03-23T03:17:43;15.32;;;12.58;;
37065;SDS011;22981;43.080;25.550;2023-03-23T03:20:14;14.30;;;12.03;;
37065;SDS011;22981;43.080;25.550;2023-03-23T03:22:44;12.23;;;10.90;;
37065;SDS011;22981;43.080;25.550;2023-03-23T03:25:13;13.35;;;11.28;;
37065;SDS011;22981;43.080;25.550;2023-03-23T03:27:43;11.88;;;10.23;;
37065;SDS011;22981;43.080;25.550;2023-03-23T03:30:16;10.10;;;8.53;;
37065;SDS011;22981;43.080;25.550;2023-03-23T03:32:46;12.10;;;10.72;;
37065;SDS011;22981;43.080;25.550;2023-03-23T03:35:16;12.13;;;10.82;;
37065;SDS011;22981;43.080;25.550;2023-03-23T03:37:44;14.15;;;11.78;;
37065;SDS011;22981;43.080;25.550;2023-03-23T03:40:14;12.90;;;10.55;;
37065;SDS011;22981;43.080;25.550;2023-03-23T03:42:43;12.93;;;10.65;;
37065;SDS011;22981;43.080;25.550;2023-03-23T03:45:12;14.53;;;11.38;;
37065;SDS011;22981;43.080;25.550;2023-03-23T03:47:42;12.78;;;10.82;;
37065;SDS011;22981;43.080;25.550;2023-03-23T03:50:10;14.35;;;10.30;;
37065;SDS011;22981;43.080;25.550;2023-03-23T03:52:38;12.00;;;10.48;;
37065;SDS011;22981;43.080;25.550;2023-03-23T03:55:06;13.58;;;11.68;;
37065;SDS011;22981;43.080;25.550;2023-03-23T03:57:35;14.65;;;12.37;;
37065;SDS011;22981;43.080;25.550;2023-03-23T04:00:04;18.67;;;12.93;;
37065;SDS011;22981;43.080;25.550;2023-03-23T04:02:37;15.85;;;12.43;;
37065;SDS011;22981;43.080;25.550;2023-03-23T04:05:06;18.85;;;13.50;;
37065;SDS011;22981;43.080;25.550;2023-03-23T04:07:36;14.38;;;12.05;;
37065;SDS011;22981;43.080;25.550;2023-03-23T04:10:08;15.08;;;13.43;;
37065;SDS011;22981;43.080;25.550;2023-03-23T04:12:38;16.65;;;13.40;;
37065;SDS011;22981;43.080;25.550;2023-03-23T04:15:06;15.98;;;13.45;;
37065;SDS011;22981;43.080;25.550;2023-03-23T04:17:34;17.23;;;14.78;;
37065;SDS011;22981;43.080;25.550;2023-03-23T04:20:03;17.07;;;14.73;;
37065;SDS011;22981;43.080;25.550;2023-03-23T04:22:36;15.60;;;13.78;;
37065;SDS011;22981;43.080;25.550;2023-03-23T04:25:04;16.73;;;14.10;;
37065;SDS011;22981;43.080;25.550;2023-03-23T04:27:32;17.20;;;15.32;;
37065;SDS011;22981;43.080;25.550;2023-03-23T04:30:00;15.58;;;13.78;;
37065;SDS011;22981;43.080;25.550;2023-03-23T04:32:28;16.80;;;14.83;;
37065;SDS011;22981;43.080;25.550;2023-03-23T04:34:56;16.55;;;14.20;;
37065;SDS011;22981;43.080;25.550;2023-03-23T04:37:27;18.57;;;15.78;;
37065;SDS011;22981;43.080;25.550;2023-03-23T04:39:55;17.95;;;15.13;;
37065;SDS011;22981;43.080;25.550;2023-03-23T04:42:27;17.95;;;16.00;;
37065;SDS011;22981;43.080;25.550;2023-03-23T04:44:56;18.25;;;16.35;;
37065;SDS011;22981;43.080;25.550;2023-03-23T04:47:25;19.52;;;16.05;;
37065;SDS011;22981;43.080;25.550;2023-03-23T04:49:56;19.82;;;16.35;;
37065;SDS011;22981;43.080;25.550;2023-03-23T04:52:24;18.65;;;15.63;;
37065;SDS011;22981;43.080;25.550;2023-03-23T04:54:54;19.92;;;16.67;;
37065;SDS011;22981;43.080;25.550;2023-03-23T04:57:22;26.75;;;20.92;;
37065;SDS011;22981;43.080;25.550;2023-03-23T04:59:51;41.95;;;31.95;;
37065;SDS011;22981;43.080;25.550;2023-03-23T05:02:19;52.93;;;43.42;;
37065;SDS011;22981;43.080;25.550;2023-03-23T05:04:46;29.90;;;26.52;;
37065;SDS011;22981;43.080;25.550;2023-03-23T05:07:14;46.70;;;37.85;;
37065;SDS011;22981;43.080;25.550;2023-03-23T05:09:42;32.90;;;28.55;;
37065;SDS011;22981;43.080;25.550;2023-03-23T05:12:12;28.17;;;24.77;;
37065;SDS011;22981;43.080;25.550;2023-03-23T05:14:40;24.70;;;20.08;;
37065;SDS011;22981;43.080;25.550;2023-03-23T05:17:08;21.23;;;18.30;;
37065;SDS011;22981;43.080;25.550;2023-03-23T05:19:36;22.13;;;19.82;;
37065;SDS011;22981;43.080;25.550;2023-03-23T05:22:04;21.50;;;18.20;;
37065;SDS011;22981;43.080;25.550;2023-03-23T05:24:31;21.30;;;18.77;;
37065;SDS011;22981;43.080;25.550;2023-03-23T05:26:59;20.92;;;18.10;;
37065;SDS011;22981;43.080;25.550;2023-03-23T05:29:27;20.10;;;17.10;;
37065;SDS011;22981;43.080;25.550;2023-03-23T05:31:57;23.22;;;18.00;;
37065;SDS011;22981;43.080;25.550;2023-03-23T05:34:26;21.57;;;18.02;;
37065;SDS011;22981;43.080;25.550;2023-03-23T05:36:54;21.80;;;17.50;;
37065;SDS011;22981;43.080;25.550;2023-03-23T05:39:23;20.25;;;17.98;;
37065;SDS011;22981;43.080;25.550;2023-03-23T05:41:52;21.80;;;18.65;;
37065;SDS011;22981;43.080;25.550;2023-03-23T05:44:19;20.60;;;17.17;;
37065;SDS011;22981;43.080;25.550;2023-03-23T05:46:47;20.40;;;17.87;;
37065;SDS011;22981;43.080;25.550;2023-03-23T05:49:15;21.93;;;19.23;;
37065;SDS011;22981;43.080;25.550;2023-03-23T05:51:44;25.85;;;21.35;;
37065;SDS011;22981;43.080;25.550;2023-03-23T05:54:12;27.27;;;21.27;;
37065;SDS011;22981;43.080;25.550;2023-03-23T05:56:40;24.75;;;19.77;;
37065;SDS011;22981;43.080;25.550;2023-03-23T05:59:08;23.05;;;19.70;;
37065;SDS011;22981;43.080;25.550;2023-03-23T06:01:36;23.95;;;20.82;;
37065;SDS011;22981;43.080;25.550;2023-03-23T06:04:04;27.60;;;22.45;;
37065;SDS011;22981;43.080;25.550;2023-03-23T06:06:32;23.47;;;19.30;;
37065;SDS011;22981;43.080;25.550;2023-03-23T06:09:00;24.55;;;20.52;;
37065;SDS011;22981;43.080;25.550;2023-03-23T06:11:28;24.63;;;21.45;;
37065;SDS011;22981;43.080;25.550;2023-03-23T06:13:56;23.45;;;19.23;;
37065;SDS011;22981;43.080;25.550;2023-03-23T06:16:24;23.25;;;18.23;;
37065;SDS011;22981;43.080;25.550;2023-03-23T06:18:51;26.97;;;22.60;;
37065;SDS011;22981;43.080;25.550;2023-03-23T06:21:19;25.40;;;19.57;;
37065;SDS011;22981;43.080;25.550;2023-03-23T06:23:47;27.50;;;21.23;;
37065;SDS011;22981;43.080;25.550;2023-03-23T06:26:16;22.45;;;19.20;;
37065;SDS011;22981;43.080;25.550;2023-03-23T06:28:45;23.92;;;19.12;;
37065;SDS011;22981;43.080;25.550;2023-03-23T06:31:13;25.57;;;20.00;;
37065;SDS011;22981;43.080;25.550;2023-03-23T06:33:42;24.32;;;19.85;;
37065;SDS011;22981;43.080;25.550;2023-03-23T06:36:10;22.20;;;19.80;;
37065;SDS011;22981;43.080;25.550;2023-03-23T06:38:38;20.70;;;18.25;;
37065;SDS011;22981;43.080;25.550;2023-03-23T06:41:05;21.68;;;18.30;;
37065;SDS011;22981;43.080;25.550;2023-03-23T06:43:34;23.67;;;18.37;;
37065;SDS011;22981;43.080;25.550;2023-03-23T06:46:03;21.37;;;18.15;;
37065;SDS011;22981;43.080;25.550;2023-03-23T06:48:31;20.55;;;17.82;;
37065;SDS011;22981;43.080;25.550;2023-03-23T06:50:59;21.20;;;16.15;;
37065;SDS011;22981;43.080;25.550;2023-03-23T06:53:28;21.50;;;17.73;;
37065;SDS011;22981;43.080;25.550;2023-03-23T06:55:55;22.55;;;17.57;;
37065;SDS011;22981;43.080;25.550;2023-03-23T06:58:23;18.05;;;15.28;;
37065;SDS011;22981;43.080;25.550;2023-03-23T07:00:54;18.42;;;15.65;;
37065;SDS011;22981;43.080;25.550;2023-03-23T07:03:23;20.15;;;14.98;;
37065;SDS011;22981;43.080;25.550;2023-03-23T07:05:53;20.12;;;16.73;;
37065;SDS011;22981;43.080;25.550;2023-03-23T07:08:21;17.52;;;14.47;;
37065;SDS011;22981;43.080;25.550;2023-03-23T07:10:52;40.55;;;28.12;;
37065;SDS011;22981;43.080;25.550;2023-03-23T07:13:21;22.35;;;18.67;;
37065;SDS011;22981;43.080;25.550;2023-03-23T07:15:49;23.22;;;17.07;;
37065;SDS011;22981;43.080;25.550;2023-03-23T07:18:17;19.42;;;16.10;;
37065;SDS011;22981;43.080;25.550;2023-03-23T07:20:48;17.70;;;15.15;;
37065;SDS011;22981;43.080;25.550;2023-03-23T07:23:16;22.22;;;16.25;;
37065;SDS011;22981;43.080;25.550;2023-03-23T07:25:45;20.65;;;16.65;;
37065;SDS011;22981;43.080;25.550;2023-03-23T07:28:14;19.02;;;16.02;;
37065;SDS011;22981;43.080;25.550;2023-03-23T07:30:42;19.37;;;16.05;;
37065;SDS011;22981;43.080;25.550;2023-03-23T07:33:10;17.87;;;15.35;;
37065;SDS011;22981;43.080;25.550;2023-03-23T07:35:39;17.10;;;14.03;;
37065;SDS011;22981;43.080;25.550;2023-03-23T07:38:07;16.00;;;13.83;;
37065;SDS011;22981;43.080;25.550;2023-03-23T07:40:35;15.23;;;12.65;;
37065;SDS011;22981;43.080;25.550;2023-03-23T07:43:03;12.80;;;11.43;;
37065;SDS011;22981;43.080;25.550;2023-03-23T07:45:31;13.03;;;11.60;;
37065;SDS011;22981;43.080;25.550;2023-03-23T07:47:59;12.63;;;11.10;;
37065;SDS011;22981;43.080;25.550;2023-03-23T07:50:27;14.40;;;12.05;;
37065;SDS011;22981;43.080;25.550;2023-03-23T07:52:55;15.25;;;12.75;;
37065;SDS011;22981;43.080;25.550;2023-03-23T07:55:24;19.60;;;15.10;;
37065;SDS011;22981;43.080;25.550;2023-03-23T07:57:52;17.77;;;14.23;;
37065;SDS011;22981;43.080;25.550;2023-03-23T08:00:21;14.53;;;12.98;;
37065;SDS011;22981;43.080;25.550;2023-03-23T08:02:51;14.50;;;13.00;;
37065;SDS011;22981;43.080;25.550;2023-03-23T08:05:23;13.80;;;11.95;;
37065;SDS011;22981;43.080;25.550;2023-03-23T08:07:52;17.27;;;13.38;;
37065;SDS011;22981;43.080;25.550;2023-03-23T08:10:21;15.50;;;12.55;;
37065;SDS011;22981;43.080;25.550;2023-03-23T08:12:51;16.25;;;12.95;;
37065;SDS011;22981;43.080;25.550;2023-03-23T08:15:20;14.55;;;12.47;;
37065;SDS011;22981;43.080;25.550;2023-03-23T08:17:50;12.70;;;11.38;;
37065;SDS011;22981;43.080;25.550;2023-03-23T08:20:17;11.80;;;10.60;;
37065;SDS011;22981;43.080;25.550;2023-03-23T08:22:48;17.57;;;14.53;;
37065;SDS011;22981;43.080;25.550;2023-03-23T08:25:15;16.95;;;14.73;;
37065;SDS011;22981;43.080;25.550;2023-03-23T08:27:43;17.57;;;15.43;;
37065;SDS011;22981;43.080;25.550;2023-03-23T08:30:11;19.67;;;16.73;;
37065;SDS011;22981;43.080;25.550;2023-03-23T08:32:41;15.85;;;14.10;;
37065;SDS011;22981;43.080;25.550;2023-03-23T08:35:10;17.15;;;13.48;;
37065;SDS011;22981;43.080;25.550;2023-03-23T08:37:38;15.23;;;13.62;;
37065;SDS011;22981;43.080;25.550;2023-03-23T08:40:07;14.07;;;12.58;;
37065;SDS011;22981;43.080;25.550;2023-03-23T08:42:37;17.85;;;12.78;;
37065;SDS011;22981;43.080;25.550;2023-03-23T08:45:06;14.60;;;13.00;;
37065;SDS011;22981;43.080;25.550;2023-03-23T08:47:36;15.20;;;12.65;;
37065;SDS011;22981;43.080;25.550;2023-03-23T08:50:06;17.17;;;13.40;;
37065;SDS011;22981;43.080;25.550;2023-03-23T08:52:36;14.35;;;11.83;;
37065;SDS011;22981;43.080;25.550;2023-03-23T08:55:04;15.53;;;13.38;;
37065;SDS011;22981;43.080;25.550;2023-03-23T08:57:34;14.28;;;12.33;;
37065;SDS011;22981;43.080;25.550;2023-03-23T09:00:04;15.53;;;13.45;;
37065;SDS011;22981;43.080;25.550;2023-03-23T09:02:47;17.40;;;13.88;;
37065;SDS011;22981;43.080;25.550;2023-03-23T09:05:17;17.98;;;14.35;;
37065;SDS011;22981;43.080;25.550;2023-03-23T09:07:48;16.02;;;14.20;;
37065;SDS011;22981;43.080;25.550;2023-03-23T09:10:16;15.03;;;13.43;;
37065;SDS011;22981;43.080;25.550;2023-03-23T09:12:45;18.60;;;14.80;;
37065;SDS011;22981;43.080;25.550;2023-03-23T09:15:14;16.12;;;13.43;;
37065;SDS011;22981;43.080;25.550;2023-03-23T09:17:44;14.23;;;11.97;;
37065;SDS011;22981;43.080;25.550;2023-03-23T09:20:14;14.28;;;12.60;;
37065;SDS011;22981;43.080;25.550;2023-03-23T09:22:52;18.50;;;13.97;;
37065;SDS011;22981;43.080;25.550;2023-03-23T09:25:17;13.50;;;11.88;;
37065;SDS011;22981;43.080;25.550;2023-03-23T09:27:50;13.45;;;11.68;;
37065;SDS011;22981;43.080;25.550;2023-03-23T09:30:27;14.83;;;10.90;;
37065;SDS011;22981;43.080;25.550;2023-03-23T09:32:52;12.00;;;10.23;;
37065;SDS011;22981;43.080;25.550;2023-03-23T09:35:20;12.55;;;10.60;;
37065;SDS011;22981;43.080;25.550;2023-03-23T09:37:50;14.07;;;11.40;;
37065;SDS011;22981;43.080;25.550;2023-03-23T09:40:26;13.78;;;11.78;;
37065;SDS011;22981;43.080;25.550;2023-03-23T09:51:02;13.78;;;11.33;;
37065;SDS011;22981;43.080;25.550;2023-03-23T09:53:41;13.35;;;10.90;;
37065;SDS011;22981;43.080;25.550;2023-03-23T09:56:13;14.23;;;11.38;;
37065;SDS011;22981;43.080;25.550;2023-03-23T09:59:05;14.15;;;11.95;;
37065;SDS011;22981;43.080;25.550;2023-03-23T10:01:32;15.08;;;11.83;;
37065;SDS011;22981;43.080;25.550;2023-03-23T10:04:09;11.90;;;10.70;;
37065;SDS011;22981;43.080;25.550;2023-03-23T10:06:36;12.65;;;10.53;;
37065;SDS011;22981;43.080;25.550;2023-03-23T10:09:04;11.30;;;10.15;;
37065;SDS011;22981;43.080;25.550;2023-03-23T10:11:44;10.95;;;9.45;;
37065;SDS011;22981;43.080;25.550;2023-03-23T10:14:17;10.58;;;9.23;;
37065;SDS011;22981;43.080;25.550;2023-03-23T10:19:25;12.98;;;10.60;;
37065;SDS011;22981;43.080;25.550;2023-03-23T10:21:55;12.70;;;10.43;;
37065;SDS011;22981;43.080;25.550;2023-03-23T10:24:29;23.12;;;16.40;;
37065;SDS011;22981;43.080;25.550;2023-03-23T10:29:44;14.40;;;10.10;;
37065;SDS011;22981;43.080;25.550;2023-03-23T10:32:15;11.93;;;10.48;;
37065;SDS011;22981;43.080;25.550;2023-03-23T10:37:26;12.40;;;9.25;;
37065;SDS011;22981;43.080;25.550;2023-03-23T10:39:54;12.40;;;10.18;;
37065;SDS011;22981;43.080;25.550;2023-03-23T10:42:27;9.83;;;8.80;;
37065;SDS011;22981;43.080;25.550;2023-03-23T10:44:58;10.20;;;8.70;;
37065;SDS011;22981;43.080;25.550;2023-03-23T10:47:28;10.78;;;8.65;;
37065;SDS011;22981;43.080;25.550;2023-03-23T10:49:57;13.20;;;10.43;;
37065;SDS011;22981;43.080;25.550;2023-03-23T10:52:30;10.10;;;8.40;;
37065;SDS011;22981;43.080;25.550;2023-03-23T10:55:02;10.85;;;9.75;;
37065;SDS011;22981;43.080;25.550;2023-03-23T10:57:42;10.08;;;8.90;;
37065;SDS011;22981;43.080;25.550;2023-03-23T11:02:57;17.05;;;11.03;;
37065;SDS011;22981;43.080;25.550;2023-03-23T11:05:19;11.55;;;9.75;;
37065;SDS011;22981;43.080;25.550;2023-03-23T11:07:53;11.75;;;9.73;;
37065;SDS011;22981;43.080;25.550;2023-03-23T11:13:10;11.00;;;9.48;;
37065;SDS011;22981;43.080;25.550;2023-03-23T11:15:43;11.05;;;8.70;;
37065;SDS011;22981;43.080;25.550;2023-03-23T11:18:13;10.50;;;9.13;;
37065;SDS011;22981;43.080;25.550;2023-03-23T11:20:50;9.10;;;8.20;;
37065;SDS011;22981;43.080;25.550;2023-03-23T11:23:23;13.43;;;9.40;;
37065;SDS011;22981;43.080;25.550;2023-03-23T11:26:08;11.63;;;9.08;;
37065;SDS011;22981;43.080;25.550;2023-03-23T11:28:51;11.10;;;8.83;;
37065;SDS011;22981;43.080;25.550;2023-03-23T11:31:27;12.98;;;9.15;;
37065;SDS011;22981;43.080;25.550;2023-03-23T11:34:04;10.90;;;7.97;;
37065;SDS011;22981;43.080;25.550;2023-03-23T11:36:35;11.12;;;8.63;;
37065;SDS011;22981;43.080;25.550;2023-03-23T11:41:50;9.93;;;8.55;;
37065;SDS011;22981;43.080;25.550;2023-03-23T11:44:19;10.95;;;8.88;;
37065;SDS011;22981;43.080;25.550;2023-03-23T11:46:59;13.45;;;9.73;;
37065;SDS011;22981;43.080;25.550;2023-03-23T11:52:38;11.75;;;9.83;;
37065;SDS011;22981;43.080;25.550;2023-03-23T11:55:19;11.55;;;9.83;;
37065;SDS011;22981;43.080;25.550;2023-03-23T11:58:00;12.37;;;9.35;;
37065;SDS011;22981;43.080;25.550;2023-03-23T12:00:27;10.68;;;8.73;;
37065;SDS011;22981;43.080;25.550;2023-03-23T12:06:03;10.82;;;9.33;;
37065;SDS011;22981;43.080;25.550;2023-03-23T12:08:52;11.80;;;8.55;;
37065;SDS011;22981;43.080;25.550;2023-03-23T12:11:35;11.18;;;9.13;;
37065;SDS011;22981;43.080;25.550;2023-03-23T12:17:00;10.85;;;8.98;;
37065;SDS011;22981;43.080;25.550;2023-03-23T12:19:38;12.55;;;8.63;;
37065;SDS011;22981;43.080;25.550;2023-03-23T12:27:42;12.28;;;9.00;;
37065;SDS011;22981;43.080;25.550;2023-03-23T12:30:23;10.28;;;8.90;;
37065;SDS011;22981;43.080;25.550;2023-03-23T12:32:58;12.75;;;8.98;;
37065;SDS011;22981;43.080;25.550;2023-03-23T12:36:11;13.85;;;9.48;;
37065;SDS011;22981;43.080;25.550;2023-03-23T12:41:35;15.13;;;8.90;;
37065;SDS011;22981;43.080;25.550;2023-03-23T12:44:08;10.10;;;9.10;;
37065;SDS011;22981;43.080;25.550;2023-03-23T12:49:22;12.15;;;9.85;;
37065;SDS011;22981;43.080;25.550;2023-03-23T12:55:02;10.50;;;8.73;;
37065;SDS011;22981;43.080;25.550;2023-03-23T12:57:56;10.58;;;9.03;;
37065;SDS011;22981;43.080;25.550;2023-03-23T13:03:19;12.07;;;8.53;;
37065;SDS011;22981;43.080;25.550;2023-03-23T13:05:49;10.45;;;9.03;;
37065;SDS011;22981;43.080;25.550;2023-03-23T13:08:26;9.65;;;8.65;;
37065;SDS011;22981;43.080;25.550;2023-03-23T13:11:13;10.60;;;9.25;;
37065;SDS011;22981;43.080;25.550;2023-03-23T13:13:52;9.88;;;8.68;;
37065;SDS011;22981;43.080;25.550;2023-03-23T13:22:06;13.50;;;10.43;;
37065;SDS011;22981;43.080;25.550;2023-03-23T13:24:36;11.45;;;9.13;;
37065;SDS011;22981;43.080;25.550;2023-03-23T13:27:05;11.85;;;9.20;;
37065;SDS011;22981;43.080;25.550;2023-03-23T13:29:43;12.73;;;10.15;;
37065;SDS011;22981;43.080;25.550;2023-03-23T13:32:12;12.40;;;9.25;;
37065;SDS011;22981;43.080;25.550;2023-03-23T13:34:41;12.68;;;8.85;;
37065;SDS011;22981;43.080;25.550;2023-03-23T13:37:31;12.95;;;10.58;;
37065;SDS011;22981;43.080;25.550;2023-03-23T13:39:52;12.45;;;10.80;;
37065;SDS011;22981;43.080;25.550;2023-03-23T13:42:24;17.02;;;11.60;;
37065;SDS011;22981;43.080;25.550;2023-03-23T13:44:57;19.85;;;15.20;;
37065;SDS011;22981;43.080;25.550;2023-03-23T13:47:41;11.60;;;10.40;;
37065;SDS011;22981;43.080;25.550;2023-03-23T13:57:50;14.15;;;11.28;;
37065;SDS011;22981;43.080;25.550;2023-03-23T14:00:33;17.20;;;11.97;;
37065;SDS011;22981;43.080;25.550;2023-03-23T14:11:00;13.65;;;10.72;;
37065;SDS011;22981;43.080;25.550;2023-03-23T14:13:45;15.18;;;11.57;;
37065;SDS011;22981;43.080;25.550;2023-03-23T14:21:53;13.00;;;9.98;;
37065;SDS011;22981;43.080;25.550;2023-03-23T14:24:24;12.40;;;10.03;;
37065;SDS011;22981;43.080;25.550;2023-03-23T14:27:00;12.70;;;10.40;;
37065;SDS011;22981;43.080;25.550;2023-03-23T14:29:29;13.43;;;9.98;;
37065;SDS011;22981;43.080;25.550;2023-03-23T14:31:57;12.93;;;10.28;;
37065;SDS011;22981;43.080;25.550;2023-03-23T14:34:26;12.75;;;9.73;;
37065;SDS011;22981;43.080;25.550;2023-03-23T14:36:56;11.88;;;9.80;;
37065;SDS011;22981;43.080;25.550;2023-03-23T14:39:29;14.53;;;10.48;;
37065;SDS011;22981;43.080;25.550;2023-03-23T14:42:03;14.20;;;11.25;;
37065;SDS011;22981;43.080;25.550;2023-03-23T14:44:35;13.80;;;10.23;;
37065;SDS011;22981;43.080;25.550;2023-03-23T14:47:11;14.45;;;11.25;;
37065;SDS011;22981;43.080;25.550;2023-03-23T14:49:39;12.03;;;10.35;;
37065;SDS011;22981;43.080;25.550;2023-03-23T14:52:17;12.25;;;10.70;;
37065;SDS011;22981;43.080;25.550;2023-03-23T14:54:45;14.63;;;10.45;;
37065;SDS011;22981;43.080;25.550;2023-03-23T14:57:16;13.58;;;10.20;;
37065;SDS011;22981;43.080;25.550;2023-03-23T14:59:47;11.55;;;9.65;;
37065;SDS011;22981;43.080;25.550;2023-03-23T15:02:22;12.95;;;9.78;;
37065;SDS011;22981;43.080;25.550;2023-03-23T15:04:45;17.30;;;10.93;;
37065;SDS011;22981;43.080;25.550;2023-03-23T15:07:15;12.80;;;9.83;;
37065;SDS011;22981;43.080;25.550;2023-03-23T15:09:44;12.73;;;9.23;;
37065;SDS011;22981;43.080;25.550;2023-03-23T15:12:23;11.25;;;10.15;;
37065;SDS011;22981;43.080;25.550;2023-03-23T15:14:58;13.18;;;9.98;;
37065;SDS011;22981;43.080;25.550;2023-03-23T15:17:28;10.15;;;8.78;;
37065;SDS011;22981;43.080;25.550;2023-03-23T15:20:06;11.35;;;9.90;;
37065;SDS011;22981;43.080;25.550;2023-03-23T15:22:29;11.18;;;10.05;;
37065;SDS011;22981;43.080;25.550;2023-03-23T15:25:08;15.58;;;9.40;;
37065;SDS011;22981;43.080;25.550;2023-03-23T15:27:41;9.25;;;8.35;;
37065;SDS011;22981;43.080;25.550;2023-03-23T15:30:13;10.70;;;9.55;;
37065;SDS011;22981;43.080;25.550;2023-03-23T15:32:44;15.70;;;10.85;;
37065;SDS011;22981;43.080;25.550;2023-03-23T15:35:17;9.78;;;8.65;;
37065;SDS011;22981;43.080;25.550;2023-03-23T15:37:47;13.13;;;10.32;;
37065;SDS011;22981;43.080;25.550;2023-03-23T15:40:17;12.35;;;9.58;;
37065;SDS011;22981;43.080;25.550;2023-03-23T15:42:47;11.18;;;9.50;;
37065;SDS011;22981;43.080;25.550;2023-03-23T15:45:19;130.25;;;72.50;;
37065;SDS011;22981;43.080;25.550;2023-03-23T15:47:51;332.55;;;148.57;;
37065;SDS011;22981;43.080;25.550;2023-03-23T15:50:32;148.22;;;80.00;;
37065;SDS011;22981;43.080;25.550;2023-03-23T15:52:53;14.95;;;13.15;;
37065;SDS011;22981;43.080;25.550;2023-03-23T15:57:52;32.60;;;23.62;;
37065;SDS011;22981;43.080;25.550;2023-03-23T16:00:22;20.75;;;17.05;;
37065;SDS011;22981;43.080;25.550;2023-03-23T16:03:00;21.68;;;17.98;;
37065;SDS011;22981;43.080;25.550;2023-03-23T16:05:27;22.55;;;20.15;;
37065;SDS011;22981;43.080;25.550;2023-03-23T16:07:55;13.75;;;12.28;;
37065;SDS011;22981;43.080;25.550;2023-03-23T16:10:24;12.98;;;11.35;;
37065;SDS011;22981;43.080;25.550;2023-03-23T16:12:53;16.77;;;11.28;;